sensor_id;sensor_type;location;lat;lon;timestamp;pressure;altitude;pressure_sealevel;temperature;humidity
72636;BME280;60679;48.888;15.544;2022-12-29T00:01:55;96237.25;;;-2.26;76.43
72636;BME280;60679;48.888;15.544;2022-12-29T00:04:21;96233.38;;;-2.31;76.14
72636;BME280;60679;48.888;15.544;2022-12-29T00:06:47;96239.94;;;-2.36;76.42
72636;BME280;60679;48.888;15.544;2022-12-29T00:09:15;96234.94;;;-2.39;76.53
72636;BME280;60679;48.888;15.544;2022-12-29T00:11:41;96229.09;;;-2.42;76.53
72636;BME280;60679;48.888;15.544;2022-12-29T00:14:10;96226.91;;;-2.47;76.59
72636;BME280;60679;48.888;15.544;2022-12-29T00:16:54;96223.56;;;-2.49;76.53
72636;BME280;60679;48.888;15.544;2022-12-29T00:19:20;96225.50;;;-2.51;76.56
72636;BME280;60679;48.888;15.544;2022-12-29T00:22:04;96224.28;;;-2.56;76.47
72636;BME280;60679;48.888;15.544;2022-12-29T00:24:48;96217.47;;;-2.59;76.45
72636;BME280;60679;48.888;15.544;2022-12-29T00:27:32;96209.84;;;-2.62;76.59
72636;BME280;60679;48.888;15.544;2022-12-29T00:30:21;96205.84;;;-2.66;76.69
72636;BME280;60679;48.888;15.544;2022-12-29T00:33:17;96199.16;;;-2.70;76.75
72636;BME280;60679;48.888;15.544;2022-12-29T00:36:04;96194.53;;;-2.58;76.72
72636;BME280;60679;48.888;15.544;2022-12-29T00:38:32;96197.84;;;-2.56;76.74
72636;BME280;60679;48.888;15.544;2022-12-29T00:41:18;96204.81;;;-2.55;76.90
72636;BME280;60679;48.888;15.544;2022-12-29T00:44:02;96199.06;;;-2.51;76.74
72636;BME280;60679;48.888;15.544;2022-12-29T00:46:33;96197.66;;;-2.45;76.74
72636;BME280;60679;48.888;15.544;2022-12-29T00:49:00;96191.56;;;-2.46;76.52
72636;BME280;60679;48.888;15.544;2022-12-29T00:51:44;96192.16;;;-2.52;76.57
72636;BME280;60679;48.888;15.544;2022-12-29T00:54:10;96190.22;;;-2.59;76.43
72636;BME280;60679;48.888;15.544;2022-12-29T00:56:35;96189.53;;;-2.61;76.78
72636;BME280;60679;48.888;15.544;2022-12-29T00:59:07;96186.34;;;-2.65;76.62
72636;BME280;60679;48.888;15.544;2022-12-29T01:01:33;96189.97;;;-2.66;76.74
72636;BME280;60679;48.888;15.544;2022-12-29T01:03:59;96193.97;;;-2.62;76.86
72636;BME280;60679;48.888;15.544;2022-12-29T01:06:25;96189.41;;;-2.60;76.75
72636;BME280;60679;48.888;15.544;2022-12-29T01:08:51;96189.41;;;-2.60;76.79
72636;BME280;60679;48.888;15.544;2022-12-29T01:11:38;96192.03;;;-2.60;76.71
72636;BME280;60679;48.888;15.544;2022-12-29T01:14:03;96206.06;;;-2.59;76.84
72636;BME280;60679;48.888;15.544;2022-12-29T01:16:29;96194.81;;;-2.61;76.62
72636;BME280;60679;48.888;15.544;2022-12-29T01:18:54;96198.88;;;-2.67;77.17
72636;BME280;60679;48.888;15.544;2022-12-29T01:21:20;96194.44;;;-2.66;76.94
72636;BME280;60679;48.888;15.544;2022-12-29T01:23:45;96199.84;;;-2.68;76.97
72636;BME280;60679;48.888;15.544;2022-12-29T01:26:12;96200.28;;;-2.72;77.00
72636;BME280;60679;48.888;15.544;2022-12-29T01:28:38;96197.94;;;-2.75;76.93
72636;BME280;60679;48.888;15.544;2022-12-29T01:31:12;96200.72;;;-2.77;76.89
72636;BME280;60679;48.888;15.544;2022-12-29T01:33:38;96196.41;;;-2.78;77.03
72636;BME280;60679;48.888;15.544;2022-12-29T01:36:05;96186.13;;;-2.81;77.24
72636;BME280;60679;48.888;15.544;2022-12-29T01:38:32;96182.94;;;-2.84;76.93
72636;BME280;60679;48.888;15.544;2022-12-29T01:40:57;96184.22;;;-2.88;77.02
72636;BME280;60679;48.888;15.544;2022-12-29T01:46:03;96185.91;;;-2.97;77.15
72636;BME280;60679;48.888;15.544;2022-12-29T01:48:29;96174.34;;;-2.96;77.17
72636;BME280;60679;48.888;15.544;2022-12-29T01:50:57;96175.19;;;-2.96;77.23
72636;BME280;60679;48.888;15.544;2022-12-29T01:53:27;96174.34;;;-2.96;77.20
72636;BME280;60679;48.888;15.544;2022-12-29T01:56:00;96167.41;;;-2.97;77.27
72636;BME280;60679;48.888;15.544;2022-12-29T01:58:32;96158.38;;;-2.95;77.17
72636;BME280;60679;48.888;15.544;2022-12-29T02:00:59;96164.06;;;-2.89;77.26
72636;BME280;60679;48.888;15.544;2022-12-29T02:03:26;96162.63;;;-2.84;77.16
72636;BME280;60679;48.888;15.544;2022-12-29T02:05:57;96161.50;;;-2.81;77.30
72636;BME280;60679;48.888;15.544;2022-12-29T02:08:26;96163.88;;;-2.78;77.27
72636;BME280;60679;48.888;15.544;2022-12-29T02:10:54;96167.06;;;-2.75;77.11
72636;BME280;60679;48.888;15.544;2022-12-29T02:13:20;96163.28;;;-2.72;77.02
72636;BME280;60679;48.888;15.544;2022-12-29T02:37:50;96149.94;;;-2.71;77.20
72636;BME280;60679;48.888;15.544;2022-12-29T02:40:35;96148.56;;;-2.75;77.32
72636;BME280;60679;48.888;15.544;2022-12-29T02:48:46;96151.94;;;-2.82;77.63
72636;BME280;60679;48.888;15.544;2022-12-29T02:51:20;96150.28;;;-2.83;77.54
72636;BME280;60679;48.888;15.544;2022-12-29T02:53:49;96145.28;;;-2.86;77.55
72636;BME280;60679;48.888;15.544;2022-12-29T02:56:34;96142.91;;;-2.89;77.64
72636;BME280;60679;48.888;15.544;2022-12-29T02:58:59;96156.13;;;-2.89;77.54
72636;BME280;60679;48.888;15.544;2022-12-29T03:04:31;96143.50;;;-2.96;77.50
72636;BME280;60679;48.888;15.544;2022-12-29T03:09:40;96136.84;;;-3.00;77.72
72636;BME280;60679;48.888;15.544;2022-12-29T03:14:58;96142.41;;;-3.03;77.77
72636;BME280;60679;48.888;15.544;2022-12-29T03:23:13;96136.97;;;-3.01;77.62
72636;BME280;60679;48.888;15.544;2022-12-29T03:25:43;96147.00;;;-3.05;77.70
72636;BME280;60679;48.888;15.544;2022-12-29T03:28:18;96147.44;;;-3.09;77.82
72636;BME280;60679;48.888;15.544;2022-12-29T03:30:46;96145.91;;;-3.12;78.04
72636;BME280;60679;48.888;15.544;2022-12-29T03:33:15;96140.75;;;-3.13;77.89
72636;BME280;60679;48.888;15.544;2022-12-29T03:35:43;96136.31;;;-3.13;77.59
72636;BME280;60679;48.888;15.544;2022-12-29T03:38:26;96136.03;;;-3.10;78.12
72636;BME280;60679;48.888;15.544;2022-12-29T03:40:59;96144.22;;;-3.03;77.85
72636;BME280;60679;48.888;15.544;2022-12-29T03:43:27;96146.19;;;-3.05;77.78
72636;BME280;60679;48.888;15.544;2022-12-29T03:45:53;96148.53;;;-3.02;77.82
72636;BME280;60679;48.888;15.544;2022-12-29T03:48:18;96145.75;;;-3.01;77.99
72636;BME280;60679;48.888;15.544;2022-12-29T03:50:44;96139.34;;;-2.98;77.82
72636;BME280;60679;48.888;15.544;2022-12-29T03:53:09;96138.50;;;-2.99;77.96
72636;BME280;60679;48.888;15.544;2022-12-29T03:55:34;96121.97;;;-3.01;77.84
72636;BME280;60679;48.888;15.544;2022-12-29T03:58:00;96127.53;;;-3.04;77.92
72636;BME280;60679;48.888;15.544;2022-12-29T04:00:25;96140.34;;;-3.09;78.07
72636;BME280;60679;48.888;15.544;2022-12-29T04:02:51;96147.44;;;-3.09;78.18
72636;BME280;60679;48.888;15.544;2022-12-29T04:05:16;96141.47;;;-3.11;78.21
72636;BME280;60679;48.888;15.544;2022-12-29T04:07:41;96144.78;;;-3.09;77.85
72636;BME280;60679;48.888;15.544;2022-12-29T04:10:07;96144.53;;;-3.16;78.02
72636;BME280;60679;48.888;15.544;2022-12-29T04:12:33;96144.28;;;-3.22;78.08
72636;BME280;60679;48.888;15.544;2022-12-29T04:14:58;96153.84;;;-3.21;78.09
72636;BME280;60679;48.888;15.544;2022-12-29T04:17:23;96152.59;;;-3.17;78.41
72636;BME280;60679;48.888;15.544;2022-12-29T04:19:49;96152.31;;;-3.14;78.24
72636;BME280;60679;48.888;15.544;2022-12-29T04:22:15;96147.44;;;-3.19;78.01
72636;BME280;60679;48.888;15.544;2022-12-29T04:24:40;96152.72;;;-3.19;78.20
72636;BME280;60679;48.888;15.544;2022-12-29T04:27:06;96156.91;;;-3.16;78.11
72636;BME280;60679;48.888;15.544;2022-12-29T04:29:31;96153.28;;;-3.15;78.28
72636;BME280;60679;48.888;15.544;2022-12-29T04:31:56;96152.16;;;-3.13;78.11
72636;BME280;60679;48.888;15.544;2022-12-29T04:34:22;96153.56;;;-3.09;78.04
72636;BME280;60679;48.888;15.544;2022-12-29T04:36:47;96146.47;;;-3.08;78.17
72636;BME280;60679;48.888;15.544;2022-12-29T04:39:12;96143.13;;;-3.10;78.19
72636;BME280;60679;48.888;15.544;2022-12-29T04:41:38;96148.84;;;-3.15;78.31
72636;BME280;60679;48.888;15.544;2022-12-29T04:44:03;96143.16;;;-3.20;78.36
72636;BME280;60679;48.888;15.544;2022-12-29T04:46:29;96149.56;;;-3.22;78.29
72636;BME280;60679;48.888;15.544;2022-12-29T04:48:54;96146.38;;;-3.26;78.32
72636;BME280;60679;48.888;15.544;2022-12-29T04:51:20;96152.75;;;-3.28;78.38
72636;BME280;60679;48.888;15.544;2022-12-29T04:53:45;96151.25;;;-3.31;78.36
72636;BME280;60679;48.888;15.544;2022-12-29T04:56:10;96155.53;;;-3.30;78.30
72636;BME280;60679;48.888;15.544;2022-12-29T04:58:36;96158.88;;;-3.28;78.45
72636;BME280;60679;48.888;15.544;2022-12-29T05:01:01;96156.91;;;-3.26;78.37
72636;BME280;60679;48.888;15.544;2022-12-29T05:03:27;96161.81;;;-3.31;78.30
72636;BME280;60679;48.888;15.544;2022-12-29T05:05:54;96153.16;;;-3.33;78.49
72636;BME280;60679;48.888;15.544;2022-12-29T05:08:20;96157.91;;;-3.36;78.74
72636;BME280;60679;48.888;15.544;2022-12-29T05:10:45;96154.72;;;-3.40;78.67
72636;BME280;60679;48.888;15.544;2022-12-29T05:13:11;96166.41;;;-3.42;78.43
72636;BME280;60679;48.888;15.544;2022-12-29T05:15:36;96167.91;;;-3.40;78.89
72636;BME280;60679;48.888;15.544;2022-12-29T05:18:02;96166.25;;;-3.31;78.54
72636;BME280;60679;48.888;15.544;2022-12-29T05:20:27;96167.06;;;-3.31;78.49
72636;BME280;60679;48.888;15.544;2022-12-29T05:22:52;96161.38;;;-3.26;78.67
72636;BME280;60679;48.888;15.544;2022-12-29T05:25:18;96159.56;;;-3.26;78.44
72636;BME280;60679;48.888;15.544;2022-12-29T05:27:43;96160.69;;;-3.28;78.66
72636;BME280;60679;48.888;15.544;2022-12-29T05:30:09;96164.16;;;-3.28;78.62
72636;BME280;60679;48.888;15.544;2022-12-29T05:32:35;96162.19;;;-3.26;78.56
72636;BME280;60679;48.888;15.544;2022-12-29T05:35:00;96155.41;;;-3.28;78.62
72636;BME280;60679;48.888;15.544;2022-12-29T05:37:25;96159.84;;;-3.29;78.62
72636;BME280;60679;48.888;15.544;2022-12-29T05:39:51;96157.50;;;-3.32;78.53
72636;BME280;60679;48.888;15.544;2022-12-29T05:42:16;96150.69;;;-3.34;78.58
72636;BME280;60679;48.888;15.544;2022-12-29T05:44:42;96148.88;;;-3.34;78.66
72636;BME280;60679;48.888;15.544;2022-12-29T05:47:07;96152.31;;;-3.24;78.66
72636;BME280;60679;48.888;15.544;2022-12-29T05:49:32;96147.44;;;-3.09;78.42
72636;BME280;60679;48.888;15.544;2022-12-29T05:51:58;96135.47;;;-3.04;78.55
72636;BME280;60679;48.888;15.544;2022-12-29T05:54:23;96130.72;;;-3.00;78.35
72636;BME280;60679;48.888;15.544;2022-12-29T05:56:49;96144.34;;;-2.95;78.43
72636;BME280;60679;48.888;15.544;2022-12-29T05:59:14;96129.72;;;-2.89;78.56
72636;BME280;60679;48.888;15.544;2022-12-29T06:01:39;96131.78;;;-2.83;78.66
72636;BME280;60679;48.888;15.544;2022-12-29T06:04:05;96133.97;;;-2.79;78.61
72636;BME280;60679;48.888;15.544;2022-12-29T06:06:30;96122.28;;;-2.76;78.72
72636;BME280;60679;48.888;15.544;2022-12-29T06:08:56;96119.34;;;-2.73;78.14
72636;BME280;60679;48.888;15.544;2022-12-29T06:11:21;96120.19;;;-2.73;78.56
72636;BME280;60679;48.888;15.544;2022-12-29T06:13:46;96121.69;;;-2.70;78.39
72636;BME280;60679;48.888;15.544;2022-12-29T06:16:12;96120.88;;;-2.71;78.50
72636;BME280;60679;48.888;15.544;2022-12-29T06:18:37;96118.97;;;-2.78;78.50
72636;BME280;60679;48.888;15.544;2022-12-29T06:21:04;96114.13;;;-2.83;78.60
72636;BME280;60679;48.888;15.544;2022-12-29T06:23:29;96118.19;;;-2.88;78.53
72636;BME280;60679;48.888;15.544;2022-12-29T06:25:55;96116.25;;;-2.96;78.83
72636;BME280;60679;48.888;15.544;2022-12-29T06:28:20;96115.72;;;-3.00;78.70
72636;BME280;60679;48.888;15.544;2022-12-29T06:30:46;96114.06;;;-3.01;78.50
72636;BME280;60679;48.888;15.544;2022-12-29T06:33:12;96113.09;;;-3.00;78.83
72636;BME280;60679;48.888;15.544;2022-12-29T06:35:38;96111.81;;;-2.96;78.71
72636;BME280;60679;48.888;15.544;2022-12-29T06:38:03;96112.34;;;-2.92;78.87
72636;BME280;60679;48.888;15.544;2022-12-29T06:40:29;96102.84;;;-2.85;78.87
72636;BME280;60679;48.888;15.544;2022-12-29T06:42:55;96107.28;;;-2.76;78.74
72636;BME280;60679;48.888;15.544;2022-12-29T06:45:20;96108.38;;;-2.69;78.63
72636;BME280;60679;48.888;15.544;2022-12-29T06:47:46;96111.22;;;-2.62;78.56
72636;BME280;60679;48.888;15.544;2022-12-29T06:50:11;96113.16;;;-2.55;78.77
72636;BME280;60679;48.888;15.544;2022-12-29T06:52:36;96103.94;;;-2.51;78.66
72636;BME280;60679;48.888;15.544;2022-12-29T06:55:02;96114.59;;;-2.43;78.56
72636;BME280;60679;48.888;15.544;2022-12-29T06:57:27;96103.31;;;-2.35;78.48
72636;BME280;60679;48.888;15.544;2022-12-29T06:59:53;96104.34;;;-2.28;78.49
72636;BME280;60679;48.888;15.544;2022-12-29T07:02:21;96110.03;;;-2.23;78.42
72636;BME280;60679;48.888;15.544;2022-12-29T07:04:46;96111.94;;;-2.15;78.36
72636;BME280;60679;48.888;15.544;2022-12-29T07:07:12;96122.59;;;-2.07;78.38
72636;BME280;60679;48.888;15.544;2022-12-29T07:09:37;96123.50;;;-1.99;78.30
72636;BME280;60679;48.888;15.544;2022-12-29T07:12:02;96115.34;;;-1.88;78.15
72636;BME280;60679;48.888;15.544;2022-12-29T07:14:28;96116.09;;;-1.78;78.25
72636;BME280;60679;48.888;15.544;2022-12-29T07:16:53;96121.00;;;-1.65;77.86
72636;BME280;60679;48.888;15.544;2022-12-29T07:19:19;96114.34;;;-1.51;77.64
72636;BME280;60679;48.888;15.544;2022-12-29T07:21:45;96118.72;;;-1.42;77.48
72636;BME280;60679;48.888;15.544;2022-12-29T07:24:10;96116.66;;;-1.31;77.44
72636;BME280;60679;48.888;15.544;2022-12-29T07:26:36;96119.88;;;-1.19;76.79
72636;BME280;60679;48.888;15.544;2022-12-29T07:29:02;96125.88;;;-1.09;77.30
72636;BME280;60679;48.888;15.544;2022-12-29T07:31:28;96122.31;;;-1.00;77.04
72636;BME280;60679;48.888;15.544;2022-12-29T07:33:54;96119.03;;;-0.94;76.99
72636;BME280;60679;48.888;15.544;2022-12-29T07:36:19;96114.09;;;-0.89;76.98
72636;BME280;60679;48.888;15.544;2022-12-29T07:38:45;96112.56;;;-0.66;76.76
72636;BME280;60679;48.888;15.544;2022-12-29T07:41:10;96130.03;;;-0.47;76.60
72636;BME280;60679;48.888;15.544;2022-12-29T07:43:35;96132.03;;;-0.49;76.65
72636;BME280;60679;48.888;15.544;2022-12-29T07:46:01;96128.03;;;-0.45;76.70
72636;BME280;60679;48.888;15.544;2022-12-29T07:48:26;96136.00;;;-0.45;76.72
72636;BME280;60679;48.888;15.544;2022-12-29T07:50:52;96137.31;;;-0.49;76.80
72636;BME280;60679;48.888;15.544;2022-12-29T07:53:18;96126.56;;;-0.47;76.62
72636;BME280;60679;48.888;15.544;2022-12-29T07:55:43;96136.75;;;-0.27;76.50
72636;BME280;60679;48.888;15.544;2022-12-29T07:58:09;96141.41;;;-0.21;76.55
72636;BME280;60679;48.888;15.544;2022-12-29T08:00:34;96140.75;;;-0.23;76.57
72636;BME280;60679;48.888;15.544;2022-12-29T08:02:59;96139.31;;;-0.09;76.34
72636;BME280;60679;48.888;15.544;2022-12-29T08:05:25;96127.44;;;0.19;75.90
72636;BME280;60679;48.888;15.544;2022-12-29T08:07:53;96134.44;;;0.44;75.78
72636;BME280;60679;48.888;15.544;2022-12-29T08:10:18;96134.59;;;0.75;75.50
72636;BME280;60679;48.888;15.544;2022-12-29T08:12:44;96130.09;;;1.00;75.16
72636;BME280;60679;48.888;15.544;2022-12-29T08:15:10;96133.63;;;1.47;74.38
72636;BME280;60679;48.888;15.544;2022-12-29T08:17:36;96131.56;;;2.04;74.04
72636;BME280;60679;48.888;15.544;2022-12-29T08:20:02;96144.41;;;2.54;73.62
72636;BME280;60679;48.888;15.544;2022-12-29T08:22:28;96138.78;;;2.72;73.62
72636;BME280;60679;48.888;15.544;2022-12-29T08:24:54;96152.03;;;2.80;73.40
72636;BME280;60679;48.888;15.544;2022-12-29T08:27:19;96147.88;;;3.00;72.98
72636;BME280;60679;48.888;15.544;2022-12-29T08:29:44;96145.50;;;3.05;73.23
72636;BME280;60679;48.888;15.544;2022-12-29T08:32:10;96141.72;;;3.52;72.49
72636;BME280;60679;48.888;15.544;2022-12-29T08:34:36;96137.22;;;3.52;73.04
72636;BME280;60679;48.888;15.544;2022-12-29T08:37:01;96136.66;;;3.86;73.15
72636;BME280;60679;48.888;15.544;2022-12-29T08:39:26;96141.50;;;3.24;74.39
72636;BME280;60679;48.888;15.544;2022-12-29T08:41:52;96142.84;;;2.60;74.68
72636;BME280;60679;48.888;15.544;2022-12-29T08:44:18;96140.53;;;2.11;74.98
72636;BME280;60679;48.888;15.544;2022-12-29T08:46:43;96147.66;;;1.80;75.27
72636;BME280;60679;48.888;15.544;2022-12-29T08:49:08;96140.25;;;1.59;75.19
72636;BME280;60679;48.888;15.544;2022-12-29T08:51:34;96137.97;;;1.48;75.21
72636;BME280;60679;48.888;15.544;2022-12-29T08:53:59;96142.56;;;1.62;74.96
72636;BME280;60679;48.888;15.544;2022-12-29T08:56:25;96136.78;;;2.20;74.39
72636;BME280;60679;48.888;15.544;2022-12-29T08:58:52;96141.72;;;3.52;72.92
72636;BME280;60679;48.888;15.544;2022-12-29T09:01:18;96137.03;;;3.83;73.33
72636;BME280;60679;48.888;15.544;2022-12-29T09:03:44;96139.22;;;3.79;73.57
72636;BME280;60679;48.888;15.544;2022-12-29T09:06:09;96144.19;;;3.53;73.52
72636;BME280;60679;48.888;15.544;2022-12-29T09:08:35;96142.44;;;3.45;73.02
72636;BME280;60679;48.888;15.544;2022-12-29T09:11:08;96153.03;;;3.54;72.62
72636;BME280;60679;48.888;15.544;2022-12-29T09:13:34;96148.81;;;3.74;72.51
72636;BME280;60679;48.888;15.544;2022-12-29T09:16:00;96151.13;;;3.77;72.65
72636;BME280;60679;48.888;15.544;2022-12-29T09:18:25;96138.59;;;3.77;72.51
72636;BME280;60679;48.888;15.544;2022-12-29T09:20:59;96139.31;;;4.00;72.30
72636;BME280;60679;48.888;15.544;2022-12-29T09:23:25;96131.47;;;4.71;70.87
72636;BME280;60679;48.888;15.544;2022-12-29T09:25:51;96139.53;;;6.09;69.26
72636;BME280;60679;48.888;15.544;2022-12-29T09:28:17;96122.25;;;7.18;67.95
72636;BME280;60679;48.888;15.544;2022-12-29T09:30:42;96117.44;;;7.92;67.39
72636;BME280;60679;48.888;15.544;2022-12-29T09:33:07;96125.56;;;8.81;65.87
72636;BME280;60679;48.888;15.544;2022-12-29T09:35:33;96128.03;;;9.45;65.00
72636;BME280;60679;48.888;15.544;2022-12-29T09:37:58;96123.66;;;9.69;64.91
72636;BME280;60679;48.888;15.544;2022-12-29T09:40:32;96114.78;;;12.06;61.65
72636;BME280;60679;48.888;15.544;2022-12-29T09:45:45;96122.59;;;12.94;60.45
72636;BME280;60679;48.888;15.544;2022-12-29T09:48:19;96122.69;;;15.14;56.88
72636;BME280;60679;48.888;15.544;2022-12-29T09:50:56;96107.66;;;16.76;54.37
72636;BME280;60679;48.888;15.544;2022-12-29T09:53:35;96104.09;;;17.57;53.16
72636;BME280;60679;48.888;15.544;2022-12-29T09:56:05;96103.19;;;18.63;52.20
72636;BME280;60679;48.888;15.544;2022-12-29T09:59:13;96095.78;;;19.71;50.37
72636;BME280;60679;48.888;15.544;2022-12-29T10:02:52;96099.66;;;19.21;51.26
72636;BME280;60679;48.888;15.544;2022-12-29T10:04:58;96091.16;;;17.12;53.98
72636;BME280;60679;48.888;15.544;2022-12-29T10:07:30;96080.44;;;15.55;56.89
72636;BME280;60679;48.888;15.544;2022-12-29T10:15:53;96082.72;;;11.22;64.28
72636;BME280;60679;48.888;15.544;2022-12-29T10:21:17;96079.31;;;9.65;66.93
72636;BME280;60679;48.888;15.544;2022-12-29T10:23:50;96072.16;;;9.34;67.20
72636;BME280;60679;48.888;15.544;2022-12-29T10:26:19;96081.16;;;9.21;67.19
72636;BME280;60679;48.888;15.544;2022-12-29T10:28:47;96089.91;;;9.17;67.29
72636;BME280;60679;48.888;15.544;2022-12-29T10:31:48;96083.06;;;9.14;66.82
72636;BME280;60679;48.888;15.544;2022-12-29T10:34:30;96088.44;;;8.90;67.30
72636;BME280;60679;48.888;15.544;2022-12-29T10:37:09;96081.06;;;8.79;67.69
72636;BME280;60679;48.888;15.544;2022-12-29T10:39:43;96082.13;;;8.78;67.54
72636;BME280;60679;48.888;15.544;2022-12-29T10:42:34;96056.91;;;8.72;67.71
72636;BME280;60679;48.888;15.544;2022-12-29T10:45:03;96073.50;;;8.62;67.03
72636;BME280;60679;48.888;15.544;2022-12-29T10:47:34;96056.56;;;8.87;67.21
72636;BME280;60679;48.888;15.544;2022-12-29T10:50:02;96052.13;;;9.48;65.61
72636;BME280;60679;48.888;15.544;2022-12-29T10:52:28;96055.38;;;10.89;63.68
72636;BME280;60679;48.888;15.544;2022-12-29T10:55:03;96057.69;;;10.74;64.19
72636;BME280;60679;48.888;15.544;2022-12-29T10:57:36;96059.88;;;10.65;64.08
72636;BME280;60679;48.888;15.544;2022-12-29T11:00:19;96081.47;;;10.65;64.60
72636;BME280;60679;48.888;15.544;2022-12-29T11:08:25;96053.28;;;10.13;64.59
72636;BME280;60679;48.888;15.544;2022-12-29T11:11:03;96059.56;;;10.25;64.35
72636;BME280;60679;48.888;15.544;2022-12-29T11:13:34;96047.13;;;11.25;62.99
72636;BME280;60679;48.888;15.544;2022-12-29T11:16:00;96049.34;;;11.63;62.49
72636;BME280;60679;48.888;15.544;2022-12-29T11:18:39;96043.03;;;12.72;60.90
72636;BME280;60679;48.888;15.544;2022-12-29T11:21:23;96047.63;;;15.72;55.92
72636;BME280;60679;48.888;15.544;2022-12-29T11:23:59;96034.94;;;17.26;54.58
72636;BME280;60679;48.888;15.544;2022-12-29T11:26:26;96034.06;;;18.37;53.61
72636;BME280;60679;48.888;15.544;2022-12-29T11:31:49;96043.72;;;17.89;53.54
72636;BME280;60679;48.888;15.544;2022-12-29T11:34:26;96033.69;;;15.68;57.87
72636;BME280;60679;48.888;15.544;2022-12-29T11:37:01;96034.56;;;14.40;59.28
72636;BME280;60679;48.888;15.544;2022-12-29T11:39:38;96043.41;;;13.37;60.52
72636;BME280;60679;48.888;15.544;2022-12-29T11:42:06;96038.94;;;13.14;61.04
72636;BME280;60679;48.888;15.544;2022-12-29T11:44:42;96052.50;;;13.81;59.86
72636;BME280;60679;48.888;15.544;2022-12-29T11:47:13;96042.56;;;13.37;61.08
72636;BME280;60679;48.888;15.544;2022-12-29T11:49:49;96041.50;;;12.64;61.79
72636;BME280;60679;48.888;15.544;2022-12-29T11:52:16;96040.34;;;11.81;63.55
72636;BME280;60679;48.888;15.544;2022-12-29T11:54:45;96041.47;;;11.38;63.54
72636;BME280;60679;48.888;15.544;2022-12-29T11:57:14;96035.91;;;10.98;64.02
72636;BME280;60679;48.888;15.544;2022-12-29T11:59:43;96039.19;;;10.59;64.31
72636;BME280;60679;48.888;15.544;2022-12-29T12:05:08;96037.69;;;9.97;65.09
72636;BME280;60679;48.888;15.544;2022-12-29T12:07:41;96042.03;;;9.62;65.65
72636;BME280;60679;48.888;15.544;2022-12-29T12:10:16;96039.84;;;9.52;65.74
72636;BME280;60679;48.888;15.544;2022-12-29T12:13:19;96046.97;;;9.65;65.24
72636;BME280;60679;48.888;15.544;2022-12-29T12:15:55;96042.16;;;9.85;65.08
72636;BME280;60679;48.888;15.544;2022-12-29T12:24:15;96038.38;;;9.07;65.95
72636;BME280;60679;48.888;15.544;2022-12-29T12:29:20;96023.31;;;15.33;55.63
72636;BME280;60679;48.888;15.544;2022-12-29T12:32:01;95996.91;;;16.07;54.62
72636;BME280;60679;48.888;15.544;2022-12-29T12:34:37;96006.50;;;15.41;55.62
72636;BME280;60679;48.888;15.544;2022-12-29T12:45:41;96018.13;;;10.38;63.27
72636;BME280;60679;48.888;15.544;2022-12-29T13:08:03;95997.41;;;9.23;65.36
72636;BME280;60679;48.888;15.544;2022-12-29T13:19:13;95997.28;;;11.68;60.00
72636;BME280;60679;48.888;15.544;2022-12-29T13:24:01;96005.94;;;10.17;63.77
72636;BME280;60679;48.888;15.544;2022-12-29T13:26:41;96009.34;;;9.34;65.50
72636;BME280;60679;48.888;15.544;2022-12-29T13:32:09;96003.94;;;8.35;67.34
72636;BME280;60679;48.888;15.544;2022-12-29T13:34:40;96004.25;;;8.07;67.71
72636;BME280;60679;48.888;15.544;2022-12-29T13:37:16;95999.94;;;7.99;67.84
72636;BME280;60679;48.888;15.544;2022-12-29T13:39:49;96003.97;;;7.77;67.72
72636;BME280;60679;48.888;15.544;2022-12-29T13:42:18;96002.63;;;7.42;67.94
72636;BME280;60679;48.888;15.544;2022-12-29T13:49:51;96019.38;;;6.32;69.76
72636;BME280;60679;48.888;15.544;2022-12-29T13:55:18;96020.84;;;5.81;70.24
72636;BME280;60679;48.888;15.544;2022-12-29T13:57:52;96023.84;;;5.58;70.67
72636;BME280;60679;48.888;15.544;2022-12-29T14:00:20;96030.56;;;5.41;70.77
72636;BME280;60679;48.888;15.544;2022-12-29T14:02:51;96030.66;;;5.27;70.94
72636;BME280;60679;48.888;15.544;2022-12-29T14:07:47;96029.25;;;5.03;71.35
72636;BME280;60679;48.888;15.544;2022-12-29T14:10:46;96025.09;;;4.94;71.43
72636;BME280;60679;48.888;15.544;2022-12-29T14:13:16;96025.22;;;4.86;71.64
72636;BME280;60679;48.888;15.544;2022-12-29T14:15:54;96035.91;;;4.79;71.87
72636;BME280;60679;48.888;15.544;2022-12-29T14:18:28;96027.81;;;4.73;72.12
72636;BME280;60679;48.888;15.544;2022-12-29T14:21:10;96024.25;;;4.65;72.08
72636;BME280;60679;48.888;15.544;2022-12-29T14:23:47;96034.66;;;4.54;72.16
72636;BME280;60679;48.888;15.544;2022-12-29T14:28:53;96020.78;;;4.23;72.36
72636;BME280;60679;48.888;15.544;2022-12-29T14:36:36;96023.44;;;3.66;73.05
72636;BME280;60679;48.888;15.544;2022-12-29T14:39:03;96022.81;;;3.49;73.05
72636;BME280;60679;48.888;15.544;2022-12-29T14:41:44;96016.19;;;3.30;73.27
72636;BME280;60679;48.888;15.544;2022-12-29T14:44:17;96047.75;;;3.12;73.43
72636;BME280;60679;48.888;15.544;2022-12-29T14:46:46;96040.47;;;2.91;73.91
72636;BME280;60679;48.888;15.544;2022-12-29T14:49:19;96040.06;;;2.80;73.74
72636;BME280;60679;48.888;15.544;2022-12-29T14:51:47;96039.25;;;2.65;73.94
72636;BME280;60679;48.888;15.544;2022-12-29T14:57:02;96046.97;;;2.37;74.41
72636;BME280;60679;48.888;15.544;2022-12-29T14:59:30;96036.56;;;2.27;74.45
72636;BME280;60679;48.888;15.544;2022-12-29T15:02:00;96040.28;;;2.18;74.47
72636;BME280;60679;48.888;15.544;2022-12-29T15:04:32;96054.66;;;2.09;74.46
72636;BME280;60679;48.888;15.544;2022-12-29T15:06:59;96049.22;;;2.03;74.59
72636;BME280;60679;48.888;15.544;2022-12-29T15:09:37;96049.63;;;1.92;74.53
72636;BME280;60679;48.888;15.544;2022-12-29T15:12:43;96050.31;;;1.86;74.69
72636;BME280;60679;48.888;15.544;2022-12-29T15:15:23;96054.31;;;1.82;74.58
72636;BME280;60679;48.888;15.544;2022-12-29T15:17:49;96045.41;;;1.74;74.65
72636;BME280;60679;48.888;15.544;2022-12-29T15:20:27;96047.28;;;1.66;74.56
72636;BME280;60679;48.888;15.544;2022-12-29T15:23:10;96044.47;;;1.59;74.90
72636;BME280;60679;48.888;15.544;2022-12-29T15:25:36;96048.84;;;1.52;74.91